createdAt,value
2024-01-07T00:01:50.952Z,101794.00
2024-01-07T00:06:52.847Z,101799.53
2024-01-07T00:11:54.697Z,101804.19
2024-01-07T00:16:56.499Z,101815.16
2024-01-07T00:21:58.884Z,101822.28
2024-01-07T00:27:02.175Z,101824.91
2024-01-07T00:32:04.162Z,101824.84
2024-01-07T00:37:06.081Z,101824.16
2024-01-07T00:42:07.920Z,101821.06
2024-01-07T00:47:09.730Z,101841.94
2024-01-07T00:52:12.054Z,101839.22
2024-01-07T00:57:14.498Z,101839.78
2024-01-07T01:02:16.891Z,101843.50
2024-01-07T01:07:18.641Z,101840.25
2024-01-07T01:12:20.598Z,101847.75
2024-01-07T01:17:23.129Z,101855.47
2024-01-07T01:22:24.916Z,101855.50
2024-01-07T01:27:26.960Z,101856.38
2024-01-07T01:32:28.784Z,101856.69
2024-01-07T01:37:31.288Z,101869.91
2024-01-07T01:42:33.221Z,101870.19
2024-01-07T01:47:35.055Z,101874.25
2024-01-07T01:52:37.593Z,101884.28
2024-01-07T01:57:41.711Z,101885.53
2024-01-07T02:02:43.521Z,101888.34
2024-01-07T02:07:45.427Z,101892.97
2024-01-07T02:12:47.251Z,101895.81
2024-01-07T02:17:49.070Z,101901.75
2024-01-07T02:22:50.884Z,101905.66
2024-01-07T02:27:52.845Z,101899.25
2024-01-07T02:32:54.713Z,101900.59
2024-01-07T02:37:56.525Z,101906.34
2024-01-07T02:42:59.497Z,101910.34
2024-01-07T02:48:01.421Z,101905.47
2024-01-07T02:53:03.280Z,101915.94
2024-01-07T02:58:05.213Z,101938.78
2024-01-07T03:03:07.089Z,101932.53
2024-01-07T03:08:08.922Z,101938.06
2024-01-07T03:13:10.720Z,101948.75
2024-01-07T03:18:12.655Z,101944.34
2024-01-07T03:23:14.466Z,101948.91
2024-01-07T03:28:16.870Z,101950.84
2024-01-07T03:33:18.790Z,101959.03
2024-01-07T03:38:20.680Z,101961.44
2024-01-07T03:43:22.392Z,101968.63
2024-01-07T03:48:24.427Z,101967.47
2024-01-07T03:53:26.329Z,101989.72
2024-01-07T03:58:28.073Z,101989.75
2024-01-07T04:03:29.945Z,101997.97
2024-01-07T04:08:31.828Z,101999.88
2024-01-07T04:13:33.729Z,102002.00
2024-01-07T04:18:35.649Z,102013.53
2024-01-07T04:23:37.580Z,102018.34
2024-01-07T04:28:43.925Z,102020.78
2024-01-07T04:33:45.703Z,102027.09
2024-01-07T04:38:47.534Z,102028.78
2024-01-07T04:43:49.297Z,102024.66
2024-01-07T04:48:51.102Z,102031.97
2024-01-07T04:53:52.956Z,102035.25
2024-01-07T04:58:54.733Z,102042.81
2024-01-07T05:03:56.619Z,102042.66
2024-01-07T05:08:58.403Z,102054.81
2024-01-07T05:14:00.226Z,102052.41
2024-01-07T05:19:02.162Z,102069.00
2024-01-07T05:24:04.433Z,102071.63
2024-01-07T05:29:06.807Z,102088.03
2024-01-07T05:34:09.243Z,102093.66
2024-01-07T05:39:11.061Z,102097.72
2024-01-07T05:44:13.349Z,102096.06
2024-01-07T05:49:15.314Z,102099.66
2024-01-07T05:54:17.116Z,102118.75
2024-01-07T05:59:18.968Z,102110.44
2024-01-07T06:04:20.816Z,102121.22
2024-01-07T06:09:22.668Z,102130.41
2024-01-07T06:14:24.432Z,102140.31
2024-01-07T06:19:26.435Z,102141.78
2024-01-07T06:24:28.306Z,102158.81
2024-01-07T06:29:30.068Z,102157.38
2024-01-07T06:34:32.046Z,102168.16
2024-01-07T06:39:35.541Z,102170.72
2024-01-07T06:44:37.422Z,102185.63
2024-01-07T06:49:40.108Z,102192.41
2024-01-07T06:54:42.078Z,102198.84
2024-01-07T06:59:43.832Z,102212.81
2024-01-07T07:04:45.657Z,102226.56
2024-01-07T07:09:49.960Z,102219.31
2024-01-07T07:14:57.832Z,102241.16
2024-01-07T07:20:02.294Z,102252.03
2024-01-07T07:25:04.602Z,102250.81
2024-01-07T07:30:07.807Z,102266.16
2024-01-07T07:35:09.874Z,102271.41
2024-01-07T07:40:14.982Z,102269.13
2024-01-07T07:45:16.917Z,102268.38
2024-01-07T07:50:18.802Z,102279.38
2024-01-07T07:55:20.958Z,102298.41
2024-01-07T08:00:24.724Z,102299.78
2024-01-07T08:05:29.556Z,102315.97
2024-01-07T08:10:33.275Z,102322.91
2024-01-07T08:15:37.515Z,102326.75
2024-01-07T08:20:39.475Z,102346.84
2024-01-07T08:25:42.471Z,102343.09
2024-01-07T08:30:45.630Z,102351.72
2024-01-07T08:35:47.473Z,102373.78
2024-01-07T08:40:50.469Z,102367.75
2024-01-07T08:45:52.538Z,102370.97
2024-01-07T08:50:54.378Z,102384.44
2024-01-07T08:55:56.189Z,102387.84
2024-01-07T09:01:01.074Z,102389.16
2024-01-07T09:06:03.818Z,102397.69
2024-01-07T09:11:07.373Z,102400.66
2024-01-07T09:16:12.523Z,102412.56
2024-01-07T09:21:15.331Z,102425.84
2024-01-07T09:26:19.173Z,102438.66
2024-01-07T09:31:21.014Z,102428.44
2024-01-07T09:36:29.866Z,102429.88
2024-01-07T09:41:35.198Z,102445.00
2024-01-07T09:46:44.048Z,102448.69
2024-01-07T09:51:49.335Z,102463.31
2024-01-07T09:57:04.759Z,102462.00
2024-01-07T10:02:06.899Z,102468.81
2024-01-07T10:07:11.966Z,102472.00
2024-01-07T10:12:16.626Z,102484.25
2024-01-07T10:17:19.154Z,102482.84
2024-01-07T10:22:21.319Z,102482.56
2024-01-07T10:27:24.239Z,102487.66
2024-01-07T10:32:26.139Z,102488.88
2024-01-07T10:37:28.965Z,102510.72
2024-01-07T10:42:35.258Z,102502.19
2024-01-07T10:47:37.773Z,102498.13
2024-01-07T10:52:43.660Z,102510.31
2024-01-07T10:57:48.919Z,102507.41
2024-01-07T11:03:00.449Z,102506.63
2024-01-07T11:08:12.872Z,102519.25
2024-01-07T11:13:53.250Z,102525.66
2024-01-07T11:18:55.953Z,102524.75
2024-01-07T11:23:57.862Z,102531.44
2024-01-07T11:29:01.666Z,102532.38
2024-01-07T11:34:03.680Z,102539.72
2024-01-07T11:39:09.807Z,102537.84
2024-01-07T11:44:13.554Z,102540.34
2024-01-07T11:49:16.679Z,102550.91
2024-01-07T11:54:18.905Z,102553.16
2024-01-07T11:59:20.814Z,102540.28
2024-01-07T12:04:25.339Z,102539.81
2024-01-07T12:09:30.405Z,102541.47
2024-01-07T12:14:33.380Z,102557.63
2024-01-07T12:19:35.908Z,102540.06
2024-01-07T12:24:37.729Z,102552.59
2024-01-07T12:29:39.507Z,102558.09
2024-01-07T12:34:41.722Z,102553.13
2024-01-07T12:39:43.868Z,102559.47
2024-01-07T12:44:57.257Z,102562.00
2024-01-07T12:50:18.435Z,102557.13
2024-01-07T12:55:34.235Z,102563.22
2024-01-07T13:00:51.678Z,102556.47
2024-01-07T13:05:53.830Z,102564.13
2024-01-07T13:10:58.812Z,102574.19
2024-01-07T13:16:02.842Z,102572.69
2024-01-07T13:21:04.922Z,102585.09
2024-01-07T13:26:07.645Z,102589.59
2024-01-07T13:31:10.778Z,102606.44
2024-01-07T13:36:13.789Z,102607.56
2024-01-07T13:41:15.819Z,102609.16
2024-01-07T13:46:22.964Z,102610.53
2024-01-07T13:51:25.034Z,102608.34
2024-01-07T13:56:26.837Z,102612.03
2024-01-07T14:01:28.717Z,102609.63
2024-01-07T14:06:30.609Z,102627.19
2024-01-07T14:11:32.388Z,102629.50
2024-01-07T14:16:34.208Z,102645.19
2024-01-07T14:21:35.945Z,102639.03
2024-01-07T14:26:37.871Z,102666.09
2024-01-07T14:31:39.852Z,102666.94
2024-01-07T14:36:44.674Z,102677.13
2024-01-07T14:41:47.803Z,102685.03
2024-01-07T14:46:49.598Z,102683.66
2024-01-07T14:51:51.534Z,102700.63
2024-01-07T14:56:53.270Z,102706.06
2024-01-07T15:01:55.214Z,102713.66
2024-01-07T15:06:57.707Z,102707.38
2024-01-07T15:12:00.278Z,102721.09
2024-01-07T15:17:02.190Z,102724.81
2024-01-07T15:22:04.529Z,102724.44
2024-01-07T15:27:06.438Z,102738.59
2024-01-07T15:32:08.348Z,102734.63
2024-01-07T15:37:13.337Z,102739.19
2024-01-07T15:42:15.197Z,102752.00
2024-01-07T15:47:16.949Z,102759.13
2024-01-07T15:52:18.868Z,102765.66
2024-01-07T15:57:20.740Z,102775.19
2024-01-07T16:02:22.622Z,102779.38
2024-01-07T16:07:24.413Z,102793.00
2024-01-07T16:12:26.252Z,102791.25
2024-01-07T16:17:28.431Z,102800.63
2024-01-07T16:22:44.862Z,102798.06
2024-01-07T16:27:46.694Z,102804.50
2024-01-07T16:32:57.806Z,102806.03
2024-01-07T16:38:01.228Z,102819.03
2024-01-07T16:43:06.812Z,102815.63
2024-01-07T16:50:14.368Z,102823.94
2024-01-07T16:53:40.396Z,102829.06
2024-01-07T16:58:45.228Z,102849.59
2024-01-07T17:03:47.218Z,102848.56
2024-01-07T17:08:49.015Z,102865.66
2024-01-07T17:13:50.811Z,102857.53
2024-01-07T17:18:52.828Z,102876.75
2024-01-07T17:23:55.886Z,102884.66
2024-01-07T17:29:00.110Z,102887.28
2024-01-07T17:34:10.853Z,102897.63
2024-01-07T17:39:24.450Z,102895.50
2024-01-07T17:44:29.180Z,102892.47
2024-01-07T17:51:57.433Z,102894.75
2024-01-07T17:55:24.307Z,102911.72
2024-01-07T18:00:26.344Z,102912.53
2024-01-07T18:05:31.315Z,102910.19
2024-01-07T18:10:53.231Z,102921.88
2024-01-07T18:16:11.982Z,102930.41
2024-01-07T18:21:17.265Z,102938.91
2024-01-07T18:26:19.043Z,102943.06
2024-01-07T18:31:30.693Z,102945.28
2024-01-07T18:36:36.802Z,102954.44
2024-01-07T18:41:51.394Z,102948.19
2024-01-07T18:46:56.574Z,102954.97
2024-01-07T18:52:06.450Z,102964.19
2024-01-07T18:57:18.223Z,102968.28
2024-01-07T19:07:59.932Z,102966.22
2024-01-07T19:19:01.927Z,102991.53
2024-01-07T19:24:07.146Z,102986.84
2024-01-07T19:29:09.099Z,102999.50
2024-01-07T19:34:13.930Z,103002.97
2024-01-07T19:39:21.688Z,103010.44
2024-01-07T19:44:27.232Z,103007.19
2024-01-07T19:49:30.031Z,103012.00
2024-01-07T19:54:31.891Z,103017.88
2024-01-07T19:59:41.268Z,103016.16
2024-01-07T20:04:46.514Z,103024.97
2024-01-07T20:09:50.002Z,103018.66
2024-01-07T20:14:52.053Z,103030.81
2024-01-07T20:19:56.804Z,103026.53
2024-01-07T20:24:58.629Z,103022.91
2024-01-07T20:30:12.909Z,103030.00
2024-01-07T20:35:14.846Z,103024.56
2024-01-07T20:40:16.665Z,103028.03
2024-01-07T20:45:21.412Z,103025.59
2024-01-07T20:50:23.229Z,103019.41
2024-01-07T20:55:25.147Z,103023.69
2024-01-07T21:00:29.750Z,103023.22
2024-01-07T21:05:31.679Z,103023.72
2024-01-07T21:10:34.195Z,103020.13
2024-01-07T21:15:39.755Z,103020.78
2024-01-07T21:20:47.022Z,103024.25
2024-01-07T21:25:49.909Z,103022.59
2024-01-07T21:30:55.280Z,103018.97
2024-01-07T21:36:01.827Z,103032.78
2024-01-07T21:41:07.014Z,103037.19
2024-01-07T21:46:09.508Z,103034.56
2024-01-07T21:51:11.842Z,103044.25
2024-01-07T21:56:13.799Z,103034.69
2024-01-07T22:01:15.908Z,103041.97
2024-01-07T22:06:18.999Z,103038.09
2024-01-07T22:11:22.357Z,103042.16
2024-01-07T22:16:24.189Z,103044.88
2024-01-07T22:21:26.088Z,103044.28
2024-01-07T22:26:27.933Z,103048.75
2024-01-07T22:31:32.995Z,103053.00
2024-01-07T22:36:35.075Z,103054.91
2024-01-07T22:41:44.984Z,103056.56
2024-01-07T22:46:49.887Z,103055.59
2024-01-07T22:51:51.836Z,103064.44
2024-01-07T22:56:53.632Z,103063.84
2024-01-07T23:01:55.487Z,103073.94
2024-01-07T23:06:57.231Z,103074.00
2024-01-07T23:11:58.972Z,103080.13
2024-01-07T23:17:01.535Z,103079.91
2024-01-07T23:22:03.556Z,103087.81
2024-01-07T23:27:05.534Z,103084.69
2024-01-07T23:32:08.299Z,103083.03
2024-01-07T23:37:10.557Z,103084.31
2024-01-07T23:42:12.290Z,103080.94
2024-01-07T23:47:14.116Z,103092.53
2024-01-07T23:52:15.861Z,103078.63
2024-01-07T23:57:17.576Z,103076.72
